sensor_id;sensor_type;location;lat;lon;timestamp;pressure;altitude;pressure_sealevel;temperature;humidity
14343;BME280;7255;53.596;9.960;2023-03-14T00:02:19;98535.63;;;10.32;nan
14343;BME280;7255;53.596;9.960;2023-03-14T00:04:47;98537.75;;;10.30;nan
14343;BME280;7255;53.596;9.960;2023-03-14T00:07:13;98543.13;;;10.30;nan
14343;BME280;7255;53.596;9.960;2023-03-14T00:09:40;98549.28;;;10.30;nan
14343;BME280;7255;53.596;9.960;2023-03-14T00:12:06;98546.88;;;10.29;nan
14343;BME280;7255;53.596;9.960;2023-03-14T00:14:33;98547.97;;;10.23;nan
14343;BME280;7255;53.596;9.960;2023-03-14T00:16:59;98556.84;;;10.18;nan
14343;BME280;7255;53.596;9.960;2023-03-14T00:19:26;98547.75;;;10.09;nan
14343;BME280;7255;53.596;9.960;2023-03-14T00:21:53;98552.03;;;10.15;nan
14343;BME280;7255;53.596;9.960;2023-03-14T00:24:20;98562.78;;;10.15;nan
14343;BME280;7255;53.596;9.960;2023-03-14T00:26:46;98560.37;;;10.13;nan
14343;BME280;7255;53.596;9.960;2023-03-14T00:29:12;98561.16;;;10.14;nan
14343;BME280;7255;53.596;9.960;2023-03-14T00:31:39;98558.47;;;10.19;nan
14343;BME280;7255;53.596;9.960;2023-03-14T00:34:05;98552.25;;;10.29;nan
14343;BME280;7255;53.596;9.960;2023-03-14T00:36:32;98543.66;;;10.37;nan
14343;BME280;7255;53.596;9.960;2023-03-14T00:39:00;98542.84;;;10.36;nan
14343;BME280;7255;53.596;9.960;2023-03-14T00:41:26;98528.06;;;10.44;nan
14343;BME280;7255;53.596;9.960;2023-03-14T00:43:52;98525.06;;;10.46;nan
14343;BME280;7255;53.596;9.960;2023-03-14T00:46:18;98535.75;;;10.56;nan
14343;BME280;7255;53.596;9.960;2023-03-14T00:48:45;98524.47;;;10.59;nan
14343;BME280;7255;53.596;9.960;2023-03-14T00:51:12;98513.97;;;10.63;nan
14343;BME280;7255;53.596;9.960;2023-03-14T00:53:40;98514.22;;;10.66;nan
14343;BME280;7255;53.596;9.960;2023-03-14T00:56:10;98508.03;;;10.66;nan
14343;BME280;7255;53.596;9.960;2023-03-14T00:58:37;98519.84;;;10.70;nan
14343;BME280;7255;53.596;9.960;2023-03-14T01:01:07;98512.84;;;10.69;nan
14343;BME280;7255;53.596;9.960;2023-03-14T01:03:34;98511.25;;;10.68;nan
14343;BME280;7255;53.596;9.960;2023-03-14T01:06:09;98526.56;;;10.67;nan
14343;BME280;7255;53.596;9.960;2023-03-14T01:08:36;98525.72;;;10.77;nan
14343;BME280;7255;53.596;9.960;2023-03-14T01:11:06;98531.63;;;10.74;nan
14343;BME280;7255;53.596;9.960;2023-03-14T01:13:34;98533.47;;;10.78;nan
14343;BME280;7255;53.596;9.960;2023-03-14T01:16:02;98536.34;;;10.87;nan
14343;BME280;7255;53.596;9.960;2023-03-14T01:18:29;98545.19;;;10.93;nan
14343;BME280;7255;53.596;9.960;2023-03-14T01:20:55;98541.66;;;10.97;nan
14343;BME280;7255;53.596;9.960;2023-03-14T01:23:22;98543.84;;;10.95;nan
14343;BME280;7255;53.596;9.960;2023-03-14T01:25:48;98540.84;;;10.97;nan
14343;BME280;7255;53.596;9.960;2023-03-14T01:28:14;98543.84;;;10.95;nan
14343;BME280;7255;53.596;9.960;2023-03-14T01:30:42;98539.25;;;10.96;nan
14343;BME280;7255;53.596;9.960;2023-03-14T01:33:08;98544.13;;;10.89;nan
14343;BME280;7255;53.596;9.960;2023-03-14T01:35:36;98528.81;;;10.89;nan
14343;BME280;7255;53.596;9.960;2023-03-14T01:38:02;98521.63;;;10.85;nan
14343;BME280;7255;53.596;9.960;2023-03-14T01:40:28;98504.44;;;10.81;nan
14343;BME280;7255;53.596;9.960;2023-03-14T01:42:55;98504.91;;;10.88;nan
14343;BME280;7255;53.596;9.960;2023-03-14T01:48:52;98466.81;;;10.81;nan
14343;BME280;7255;53.596;9.960;2023-03-14T01:51:24;98458.25;;;10.78;nan
14343;BME280;7255;53.596;9.960;2023-03-14T01:53:52;98466.38;;;10.73;nan
14343;BME280;7255;53.596;9.960;2023-03-14T01:56:21;98458.09;;;10.65;nan
14343;BME280;7255;53.596;9.960;2023-03-14T01:58:48;98459.44;;;10.62;nan
14343;BME280;7255;53.596;9.960;2023-03-14T02:01:18;98462.44;;;10.61;nan
14343;BME280;7255;53.596;9.960;2023-03-14T02:03:50;98482.84;;;10.56;nan
14343;BME280;7255;53.596;9.960;2023-03-14T02:06:21;98471.63;;;10.49;nan
14343;BME280;7255;53.596;9.960;2023-03-14T02:08:48;98478.06;;;10.53;nan
14343;BME280;7255;53.596;9.960;2023-03-14T02:11:16;98480.94;;;10.62;nan
14343;BME280;7255;53.596;9.960;2023-03-14T02:13:43;98457.06;;;10.61;nan
14343;BME280;7255;53.596;9.960;2023-03-14T02:16:10;98428.84;;;10.63;nan
14343;BME280;7255;53.596;9.960;2023-03-14T02:18:36;98421.63;;;10.58;nan
14343;BME280;7255;53.596;9.960;2023-03-14T02:21:10;98417.13;;;10.49;nan
14343;BME280;7255;53.596;9.960;2023-03-14T02:23:45;98397.03;;;10.46;nan
14343;BME280;7255;53.596;9.960;2023-03-14T02:26:15;98398.13;;;10.40;nan
14343;BME280;7255;53.596;9.960;2023-03-14T02:28:45;98389.31;;;10.34;nan
14343;BME280;7255;53.596;9.960;2023-03-14T02:31:12;98397.38;;;10.29;nan
14343;BME280;7255;53.596;9.960;2023-03-14T02:33:39;98397.97;;;10.26;nan
14343;BME280;7255;53.596;9.960;2023-03-14T02:36:09;98402.50;;;10.26;nan
14343;BME280;7255;53.596;9.960;2023-03-14T02:38:39;98399.06;;;10.20;nan
14343;BME280;7255;53.596;9.960;2023-03-14T02:41:10;98395.31;;;10.21;nan
14343;BME280;7255;53.596;9.960;2023-03-14T02:43:36;98402.28;;;10.22;nan
14343;BME280;7255;53.596;9.960;2023-03-14T02:46:05;98410.03;;;10.24;nan
14343;BME280;7255;53.596;9.960;2023-03-14T02:48:35;98413.22;;;10.26;nan
14343;BME280;7255;53.596;9.960;2023-03-14T02:51:04;98415.09;;;10.30;nan
14343;BME280;7255;53.596;9.960;2023-03-14T02:53:32;98412.66;;;10.39;nan
14343;BME280;7255;53.596;9.960;2023-03-14T02:55:59;98421.47;;;10.45;nan
14343;BME280;7255;53.596;9.960;2023-03-14T02:58:26;98419.78;;;10.54;nan
14343;BME280;7255;53.596;9.960;2023-03-14T03:00:53;98427.81;;;10.59;nan
14343;BME280;7255;53.596;9.960;2023-03-14T03:03:21;98429.66;;;10.64;nan
14343;BME280;7255;53.596;9.960;2023-03-14T03:05:48;98424.50;;;10.67;nan
14343;BME280;7255;53.596;9.960;2023-03-14T03:08:15;98429.34;;;10.70;nan
14343;BME280;7255;53.596;9.960;2023-03-14T03:10:41;98419.06;;;10.77;nan
14343;BME280;7255;53.596;9.960;2023-03-14T03:13:08;98429.81;;;10.77;nan
14343;BME280;7255;53.596;9.960;2023-03-14T03:15:34;98418.47;;;10.81;nan
14343;BME280;7255;53.596;9.960;2023-03-14T03:18:00;98430.53;;;10.88;nan
14343;BME280;7255;53.596;9.960;2023-03-14T03:20:28;98425.88;;;10.99;nan
14343;BME280;7255;53.596;9.960;2023-03-14T03:22:54;98421.28;;;11.00;nan
14343;BME280;7255;53.596;9.960;2023-03-14T03:25:21;98413.75;;;11.02;nan
14343;BME280;7255;53.596;9.960;2023-03-14T03:27:47;98421.53;;;11.03;nan
14343;BME280;7255;53.596;9.960;2023-03-14T03:30:14;98415.34;;;11.03;nan
14343;BME280;7255;53.596;9.960;2023-03-14T03:32:40;98393.03;;;11.02;nan
14343;BME280;7255;53.596;9.960;2023-03-14T03:35:07;98398.09;;;11.09;nan
14343;BME280;7255;53.596;9.960;2023-03-14T03:37:36;98393.50;;;11.09;nan
14343;BME280;7255;53.596;9.960;2023-03-14T03:40:04;98385.63;;;11.18;nan
14343;BME280;7255;53.596;9.960;2023-03-14T03:42:31;98381.50;;;11.26;nan
14343;BME280;7255;53.596;9.960;2023-03-14T03:44:58;98378.41;;;11.13;nan
14343;BME280;7255;53.596;9.960;2023-03-14T03:47:25;98370.66;;;11.12;nan
14343;BME280;7255;53.596;9.960;2023-03-14T03:49:51;98370.87;;;11.15;nan
14343;BME280;7255;53.596;9.960;2023-03-14T03:52:17;98366.31;;;11.16;nan
14343;BME280;7255;53.596;9.960;2023-03-14T03:54:46;98362.87;;;11.10;nan
14343;BME280;7255;53.596;9.960;2023-03-14T03:57:13;98369.84;;;11.11;nan
14343;BME280;7255;53.596;9.960;2023-03-14T03:59:39;98363.44;;;11.07;nan
14343;BME280;7255;53.596;9.960;2023-03-14T04:02:06;98377.94;;;11.06;nan
14343;BME280;7255;53.596;9.960;2023-03-14T04:04:33;98364.81;;;11.05;nan
14343;BME280;7255;53.596;9.960;2023-03-14T04:06:59;98365.62;;;11.05;nan
14343;BME280;7255;53.596;9.960;2023-03-14T04:09:25;98366.16;;;11.02;nan
14343;BME280;7255;53.596;9.960;2023-03-14T04:11:53;98378.53;;;11.03;nan
14343;BME280;7255;53.596;9.960;2023-03-14T04:14:19;98359.78;;;10.98;nan
14343;BME280;7255;53.596;9.960;2023-03-14T04:16:45;98356.00;;;10.99;nan
14343;BME280;7255;53.596;9.960;2023-03-14T04:19:12;98354.72;;;10.91;nan
14343;BME280;7255;53.596;9.960;2023-03-14T04:21:38;98355.31;;;10.88;nan
14343;BME280;7255;53.596;9.960;2023-03-14T04:24:05;98356.91;;;10.89;nan
14343;BME280;7255;53.596;9.960;2023-03-14T04:26:32;98359.31;;;10.91;nan
14343;BME280;7255;53.596;9.960;2023-03-14T04:28:59;98352.00;;;10.96;nan
14343;BME280;7255;53.596;9.960;2023-03-14T04:31:25;98342.62;;;10.94;nan
14343;BME280;7255;53.596;9.960;2023-03-14T04:33:52;98341.38;;;10.86;nan
14343;BME280;7255;53.596;9.960;2023-03-14T04:36:18;98348.34;;;10.87;nan
14343;BME280;7255;53.596;9.960;2023-03-14T04:38:44;98340.56;;;10.86;nan
14343;BME280;7255;53.596;9.960;2023-03-14T04:41:11;98348.09;;;10.84;nan
14343;BME280;7255;53.596;9.960;2023-03-14T04:43:37;98347.06;;;10.79;nan
14343;BME280;7255;53.596;9.960;2023-03-14T04:46:06;98338.97;;;10.85;nan
14343;BME280;7255;53.596;9.960;2023-03-14T04:48:32;98335.09;;;10.96;nan
14343;BME280;7255;53.596;9.960;2023-03-14T04:50:59;98347.41;;;10.97;nan
14343;BME280;7255;53.596;9.960;2023-03-14T04:53:25;98342.62;;;10.94;nan
14343;BME280;7255;53.596;9.960;2023-03-14T04:55:53;98349.34;;;10.91;nan
14343;BME280;7255;53.596;9.960;2023-03-14T04:58:20;98355.78;;;10.95;nan
14343;BME280;7255;53.596;9.960;2023-03-14T05:00:47;98352.22;;;11.00;nan
14343;BME280;7255;53.596;9.960;2023-03-14T05:03:15;98344.56;;;10.88;nan
14343;BME280;7255;53.596;9.960;2023-03-14T05:05:41;98342.13;;;10.63;nan
14343;BME280;7255;53.596;9.960;2023-03-14T05:08:07;98338.22;;;10.50;nan
14343;BME280;7255;53.596;9.960;2023-03-14T05:10:33;98333.72;;;10.40;nan
14343;BME280;7255;53.596;9.960;2023-03-14T05:13:00;98344.81;;;10.33;nan
14343;BME280;7255;53.596;9.960;2023-03-14T05:15:26;98355.03;;;10.26;nan
14343;BME280;7255;53.596;9.960;2023-03-14T05:17:52;98336.97;;;9.97;nan
14343;BME280;7255;53.596;9.960;2023-03-14T05:20:20;98336.62;;;9.70;nan
14343;BME280;7255;53.596;9.960;2023-03-14T05:22:47;98315.81;;;9.46;nan
14343;BME280;7255;53.596;9.960;2023-03-14T05:25:13;98322.34;;;9.30;nan
14343;BME280;7255;53.596;9.960;2023-03-14T05:27:40;98310.81;;;9.29;nan
14343;BME280;7255;53.596;9.960;2023-03-14T05:30:09;98312.72;;;9.23;nan
14343;BME280;7255;53.596;9.960;2023-03-14T05:32:36;98313.22;;;9.31;nan
14343;BME280;7255;53.596;9.960;2023-03-14T05:35:02;98311.63;;;9.30;nan
14343;BME280;7255;53.596;9.960;2023-03-14T05:37:30;98303.84;;;9.28;nan
14343;BME280;7255;53.596;9.960;2023-03-14T05:39:57;98303.31;;;9.31;nan
14343;BME280;7255;53.596;9.960;2023-03-14T05:42:23;98317.22;;;9.33;nan
14343;BME280;7255;53.596;9.960;2023-03-14T05:44:49;98310.75;;;9.39;nan
14343;BME280;7255;53.596;9.960;2023-03-14T05:47:15;98302.44;;;9.41;nan
14343;BME280;7255;53.596;9.960;2023-03-14T05:49:42;98306.22;;;9.40;nan
14343;BME280;7255;53.596;9.960;2023-03-14T05:52:08;98298.94;;;9.46;nan
14343;BME280;7255;53.596;9.960;2023-03-14T05:54:36;98294.63;;;9.50;nan
14343;BME280;7255;53.596;9.960;2023-03-14T05:57:02;98299.69;;;9.56;nan
14343;BME280;7255;53.596;9.960;2023-03-14T05:59:28;98305.31;;;9.60;nan
14343;BME280;7255;53.596;9.960;2023-03-14T06:01:55;98292.44;;;9.62;nan
14343;BME280;7255;53.596;9.960;2023-03-14T06:04:21;98302.31;;;9.61;nan
14343;BME280;7255;53.596;9.960;2023-03-14T06:06:47;98294.59;;;9.60;nan
14343;BME280;7255;53.596;9.960;2023-03-14T06:09:14;98294.59;;;9.60;nan
14343;BME280;7255;53.596;9.960;2023-03-14T06:11:41;98291.06;;;9.64;nan
14343;BME280;7255;53.596;9.960;2023-03-14T06:14:08;98292.19;;;9.58;nan
14343;BME280;7255;53.596;9.960;2023-03-14T06:16:34;98294.34;;;9.56;nan
14343;BME280;7255;53.596;9.960;2023-03-14T06:19:00;98297.03;;;9.51;nan
14343;BME280;7255;53.596;9.960;2023-03-14T06:21:27;98308.00;;;9.55;nan
14343;BME280;7255;53.596;9.960;2023-03-14T06:23:53;98302.06;;;9.58;nan
14343;BME280;7255;53.596;9.960;2023-03-14T06:26:19;98299.63;;;9.67;nan
14343;BME280;7255;53.596;9.960;2023-03-14T06:28:48;98302.81;;;9.69;nan
14343;BME280;7255;53.596;9.960;2023-03-14T06:31:15;98295.88;;;9.68;nan
14343;BME280;7255;53.596;9.960;2023-03-14T06:33:42;98302.91;;;9.58;nan
14343;BME280;7255;53.596;9.960;2023-03-14T06:36:08;98312.00;;;9.57;nan
14343;BME280;7255;53.596;9.960;2023-03-14T06:38:35;98309.66;;;9.46;nan
14343;BME280;7255;53.596;9.960;2023-03-14T06:41:03;98313.75;;;9.38;nan
14343;BME280;7255;53.596;9.960;2023-03-14T06:43:30;98321.72;;;9.48;nan
14343;BME280;7255;53.596;9.960;2023-03-14T06:45:58;98327.66;;;9.40;nan
14343;BME280;7255;53.596;9.960;2023-03-14T06:48:24;98323.84;;;9.51;nan
14343;BME280;7255;53.596;9.960;2023-03-14T06:50:50;98337.22;;;9.56;nan
14343;BME280;7255;53.596;9.960;2023-03-14T06:53:16;98339.03;;;9.71;nan
14343;BME280;7255;53.596;9.960;2023-03-14T06:55:43;98340.84;;;9.76;nan
14343;BME280;7255;53.596;9.960;2023-03-14T06:58:10;98334.75;;;9.65;nan
14343;BME280;7255;53.596;9.960;2023-03-14T07:00:37;98345.72;;;9.69;nan
14343;BME280;7255;53.596;9.960;2023-03-14T07:03:04;98339.28;;;9.75;nan
14343;BME280;7255;53.596;9.960;2023-03-14T07:05:31;98345.38;;;9.86;nan
14343;BME280;7255;53.596;9.960;2023-03-14T07:07:57;98353.38;;;9.91;nan
14343;BME280;7255;53.596;9.960;2023-03-14T07:10:24;98345.38;;;9.86;nan
14343;BME280;7255;53.596;9.960;2023-03-14T07:12:50;98354.78;;;9.78;nan
14343;BME280;7255;53.596;9.960;2023-03-14T07:15:17;98345.19;;;9.72;nan
14343;BME280;7255;53.596;9.960;2023-03-14T07:17:44;98348.13;;;9.70;nan
14343;BME280;7255;53.596;9.960;2023-03-14T07:20:12;98356.44;;;9.69;nan
14343;BME280;7255;53.596;9.960;2023-03-14T07:22:38;98358.31;;;9.73;nan
14343;BME280;7255;53.596;9.960;2023-03-14T07:25:05;98362.81;;;9.83;nan
14343;BME280;7255;53.596;9.960;2023-03-14T07:27:34;98364.41;;;9.84;nan
14343;BME280;7255;53.596;9.960;2023-03-14T07:30:00;98366.00;;;9.85;nan
14343;BME280;7255;53.596;9.960;2023-03-14T07:32:27;98366.00;;;9.85;nan
14343;BME280;7255;53.596;9.960;2023-03-14T07:34:53;98357.69;;;9.87;nan
14343;BME280;7255;53.596;9.960;2023-03-14T07:37:20;98367.00;;;9.99;nan
14343;BME280;7255;53.596;9.960;2023-03-14T07:39:47;98357.78;;;10.11;nan
14343;BME280;7255;53.596;9.960;2023-03-14T07:42:13;98367.09;;;10.24;nan
14343;BME280;7255;53.596;9.960;2023-03-14T07:44:39;98362.56;;;10.24;nan
14343;BME280;7255;53.596;9.960;2023-03-14T07:47:05;98367.69;;;10.20;nan
14343;BME280;7255;53.596;9.960;2023-03-14T07:49:32;98375.38;;;10.32;nan
14343;BME280;7255;53.596;9.960;2023-03-14T07:51:58;98369.22;;;10.32;nan
14343;BME280;7255;53.596;9.960;2023-03-14T07:54:26;98374.88;;;10.25;nan
14343;BME280;7255;53.596;9.960;2023-03-14T07:56:52;98367.97;;;10.14;nan
14343;BME280;7255;53.596;9.960;2023-03-14T07:59:19;98375.47;;;10.22;nan
14343;BME280;7255;53.596;9.960;2023-03-14T08:01:45;98369.03;;;10.18;nan
14343;BME280;7255;53.596;9.960;2023-03-14T08:04:12;98373.41;;;10.03;nan
14343;BME280;7255;53.596;9.960;2023-03-14T08:06:38;98367.97;;;10.14;nan
14343;BME280;7255;53.596;9.960;2023-03-14T08:09:04;98373.34;;;10.14;nan
14343;BME280;7255;53.596;9.960;2023-03-14T08:11:32;98362.66;;;10.09;nan
14343;BME280;7255;53.596;9.960;2023-03-14T08:13:58;98372.16;;;10.30;nan
14343;BME280;7255;53.596;9.960;2023-03-14T08:16:25;98361.44;;;10.30;nan
14343;BME280;7255;53.596;9.960;2023-03-14T08:18:51;98373.72;;;10.42;nan
14343;BME280;7255;53.596;9.960;2023-03-14T08:21:17;98372.50;;;10.58;nan
14343;BME280;7255;53.596;9.960;2023-03-14T08:23:44;98368.75;;;10.59;nan
14343;BME280;7255;53.596;9.960;2023-03-14T08:26:10;98381.00;;;10.70;nan
14343;BME280;7255;53.596;9.960;2023-03-14T08:28:38;98374.72;;;10.80;nan
14343;BME280;7255;53.596;9.960;2023-03-14T08:31:04;98376.56;;;10.85;nan
14343;BME280;7255;53.596;9.960;2023-03-14T08:33:31;98364.78;;;10.81;nan
14343;BME280;7255;53.596;9.960;2023-03-14T08:35:59;98371.09;;;10.95;nan
14343;BME280;7255;53.596;9.960;2023-03-14T08:38:25;98357.38;;;10.96;nan
14343;BME280;7255;53.596;9.960;2023-03-14T08:40:55;98356.00;;;10.99;nan
14343;BME280;7255;53.596;9.960;2023-03-14T08:43:22;98368.03;;;11.07;nan
14343;BME280;7255;53.596;9.960;2023-03-14T08:45:49;98359.91;;;11.12;nan
14343;BME280;7255;53.596;9.960;2023-03-14T08:48:16;98372.47;;;11.16;nan
14343;BME280;7255;53.596;9.960;2023-03-14T08:50:42;98372.56;;;11.06;nan
14343;BME280;7255;53.596;9.960;2023-03-14T08:53:08;98368.56;;;11.04;nan
14343;BME280;7255;53.596;9.960;2023-03-14T08:55:35;98376.59;;;11.09;nan
14343;BME280;7255;53.596;9.960;2023-03-14T08:58:01;98379.78;;;10.87;nan
14343;BME280;7255;53.596;9.960;2023-03-14T09:00:27;98377.78;;;10.68;nan
14343;BME280;7255;53.596;9.960;2023-03-14T09:02:55;98381.78;;;10.71;nan
14343;BME280;7255;53.596;9.960;2023-03-14T09:05:21;98372.41;;;10.68;nan
14343;BME280;7255;53.596;9.960;2023-03-14T09:07:48;98372.91;;;10.75;nan
14343;BME280;7255;53.596;9.960;2023-03-14T09:10:14;98378.75;;;10.83;nan
14343;BME280;7255;53.596;9.960;2023-03-14T09:12:40;98372.31;;;10.78;nan
14343;BME280;7255;53.596;9.960;2023-03-14T09:15:08;98368.00;;;10.83;nan
14343;BME280;7255;53.596;9.960;2023-03-14T09:17:34;98359.53;;;10.94;nan
14343;BME280;7255;53.596;9.960;2023-03-14T09:20:02;98364.22;;;10.84;nan
14343;BME280;7255;53.596;9.960;2023-03-14T09:22:30;98375.09;;;10.97;nan
14343;BME280;7255;53.596;9.960;2023-03-14T09:24:57;98371.75;;;10.82;nan
14343;BME280;7255;53.596;9.960;2023-03-14T09:27:24;98369.94;;;10.77;nan
14343;BME280;7255;53.596;9.960;2023-03-14T09:29:50;98366.88;;;10.54;nan
14343;BME280;7255;53.596;9.960;2023-03-14T09:32:16;98383.03;;;10.49;nan
14343;BME280;7255;53.596;9.960;2023-03-14T09:34:43;98377.16;;;10.47;nan
14343;BME280;7255;53.596;9.960;2023-03-14T09:37:10;98383.78;;;10.55;nan
14343;BME280;7255;53.596;9.960;2023-03-14T09:39:37;98387.25;;;10.61;nan
14343;BME280;7255;53.596;9.960;2023-03-14T09:42:06;98378.59;;;10.69;nan
14343;BME280;7255;53.596;9.960;2023-03-14T09:44:37;98385.09;;;10.63;nan
14343;BME280;7255;53.596;9.960;2023-03-14T09:47:06;98381.12;;;10.84;nan
14343;BME280;7255;53.596;9.960;2023-03-14T09:49:36;98388.19;;;10.75;nan
14343;BME280;7255;53.596;9.960;2023-03-14T09:52:07;98461.63;;;10.60;nan
14343;BME280;7255;53.596;9.960;2023-03-14T09:54:42;98432.72;;;9.32;nan
14343;BME280;7255;53.596;9.960;2023-03-14T09:57:13;98457.94;;;8.59;nan
14343;BME280;7255;53.596;9.960;2023-03-14T09:59:43;98453.56;;;8.12;nan
14343;BME280;7255;53.596;9.960;2023-03-14T10:02:16;98468.97;;;7.84;nan
14343;BME280;7255;53.596;9.960;2023-03-14T10:04:44;98471.59;;;7.68;nan
14343;BME280;7255;53.596;9.960;2023-03-14T10:07:14;98468.50;;;7.39;nan
14343;BME280;7255;53.596;9.960;2023-03-14T10:09:44;98478.78;;;7.15;nan
14343;BME280;7255;53.596;9.960;2023-03-14T10:12:11;98491.63;;;6.86;nan
14343;BME280;7255;53.596;9.960;2023-03-14T10:14:45;98509.63;;;7.01;nan
14343;BME280;7255;53.596;9.960;2023-03-14T10:17:13;98510.03;;;7.15;nan
14343;BME280;7255;53.596;9.960;2023-03-14T10:19:51;98514.78;;;7.07;nan
14343;BME280;7255;53.596;9.960;2023-03-14T10:22:18;98524.25;;;6.93;nan
14343;BME280;7255;53.596;9.960;2023-03-14T10:24:51;98529.81;;;6.86;nan
14343;BME280;7255;53.596;9.960;2023-03-14T10:27:19;98535.97;;;6.60;nan
14343;BME280;7255;53.596;9.960;2023-03-14T10:29:52;98541.97;;;6.23;nan
14343;BME280;7255;53.596;9.960;2023-03-14T10:32:20;98557.75;;;5.85;nan
14343;BME280;7255;53.596;9.960;2023-03-14T10:35:04;98557.94;;;5.62;nan
14343;BME280;7255;53.596;9.960;2023-03-14T10:37:31;98582.97;;;5.77;nan
14343;BME280;7255;53.596;9.960;2023-03-14T10:40:00;98587.38;;;5.50;nan
14343;BME280;7255;53.596;9.960;2023-03-14T10:42:32;98594.78;;;5.14;nan
14343;BME280;7255;53.596;9.960;2023-03-14T10:45:01;98609.41;;;4.82;nan
14343;BME280;7255;53.596;9.960;2023-03-14T10:47:28;98611.50;;;4.80;nan
14343;BME280;7255;53.596;9.960;2023-03-14T10:49:55;98620.59;;;4.56;nan
14343;BME280;7255;53.596;9.960;2023-03-14T10:52:23;98637.37;;;4.56;nan
14343;BME280;7255;53.596;9.960;2023-03-14T10:54:54;98654.47;;;4.60;nan
14343;BME280;7255;53.596;9.960;2023-03-14T10:57:24;98637.44;;;4.33;nan
14343;BME280;7255;53.596;9.960;2023-03-14T10:59:51;98665.44;;;4.23;nan
14343;BME280;7255;53.596;9.960;2023-03-14T11:02:38;98651.31;;;4.35;nan
14343;BME280;7255;53.596;9.960;2023-03-14T11:05:22;98674.19;;;4.36;nan
14343;BME280;7255;53.596;9.960;2023-03-14T11:07:52;98688.09;;;4.14;nan
14343;BME280;7255;53.596;9.960;2023-03-14T11:10:25;98695.00;;;3.92;nan
14343;BME280;7255;53.596;9.960;2023-03-14T11:13:02;98714.66;;;3.91;nan
14343;BME280;7255;53.596;9.960;2023-03-14T11:15:35;98723.22;;;3.93;nan
14343;BME280;7255;53.596;9.960;2023-03-14T11:18:16;98728.25;;;3.82;nan
14343;BME280;7255;53.596;9.960;2023-03-14T11:20:49;98740.97;;;3.80;nan
14343;BME280;7255;53.596;9.960;2023-03-14T11:23:20;98753.00;;;3.95;nan
14343;BME280;7255;53.596;9.960;2023-03-14T11:25:54;98760.41;;;3.93;nan
14343;BME280;7255;53.596;9.960;2023-03-14T11:28:31;98790.91;;;4.02;nan
14343;BME280;7255;53.596;9.960;2023-03-14T11:31:06;98810.56;;;4.24;nan
14343;BME280;7255;53.596;9.960;2023-03-14T11:33:37;98810.31;;;3.91;nan
14343;BME280;7255;53.596;9.960;2023-03-14T11:36:06;98825.44;;;3.90;nan
14343;BME280;7255;53.596;9.960;2023-03-14T11:38:37;98829.28;;;4.06;nan
14343;BME280;7255;53.596;9.960;2023-03-14T11:41:09;98844.78;;;4.09;nan
14343;BME280;7255;53.596;9.960;2023-03-14T11:43:39;98846.12;;;4.00;nan
14343;BME280;7255;53.596;9.960;2023-03-14T11:46:10;98853.31;;;4.11;nan
14343;BME280;7255;53.596;9.960;2023-03-14T11:48:44;98862.50;;;4.27;nan
14343;BME280;7255;53.596;9.960;2023-03-14T11:51:16;98854.69;;;4.02;nan
14343;BME280;7255;53.596;9.960;2023-03-14T11:53:53;98860.50;;;4.22;nan
14343;BME280;7255;53.596;9.960;2023-03-14T11:56:27;98886.22;;;4.52;nan
14343;BME280;7255;53.596;9.960;2023-03-14T11:58:58;98872.91;;;4.40;nan
14343;BME280;7255;53.596;9.960;2023-03-14T12:01:36;98888.44;;;4.67;nan
14343;BME280;7255;53.596;9.960;2023-03-14T12:04:12;98886.69;;;4.49;nan
14343;BME280;7255;53.596;9.960;2023-03-14T12:06:46;98888.53;;;4.60;nan
14343;BME280;7255;53.596;9.960;2023-03-14T12:09:15;98900.78;;;4.61;nan
14343;BME280;7255;53.596;9.960;2023-03-14T12:11:47;98899.28;;;4.54;nan
14343;BME280;7255;53.596;9.960;2023-03-14T12:14:20;98893.88;;;4.60;nan
14343;BME280;7255;53.596;9.960;2023-03-14T12:16:48;98906.59;;;4.82;nan
14343;BME280;7255;53.596;9.960;2023-03-14T12:19:33;98923.12;;;4.96;nan
14343;BME280;7255;53.596;9.960;2023-03-14T12:22:08;98923.25;;;4.66;nan
14343;BME280;7255;53.596;9.960;2023-03-14T12:24:45;98945.59;;;4.76;nan
14343;BME280;7255;53.596;9.960;2023-03-14T12:30:28;98952.75;;;4.88;nan
14343;BME280;7255;53.596;9.960;2023-03-14T12:36:03;98963.28;;;4.94;nan
14343;BME280;7255;53.596;9.960;2023-03-14T12:38:41;98985.16;;;5.08;nan
14343;BME280;7255;53.596;9.960;2023-03-14T12:41:14;98991.31;;;5.32;nan
14343;BME280;7255;53.596;9.960;2023-03-14T12:43:41;98997.09;;;5.29;nan
14343;BME280;7255;53.596;9.960;2023-03-14T12:46:15;98996.88;;;5.19;nan
14343;BME280;7255;53.596;9.960;2023-03-14T12:48:46;98981.34;;;5.16;nan
14343;BME280;7255;53.596;9.960;2023-03-14T12:51:14;98970.69;;;5.16;nan
14343;BME280;7255;53.596;9.960;2023-03-14T12:53:56;99001.59;;;5.52;nan
14343;BME280;7255;53.596;9.960;2023-03-14T12:56:36;99013.41;;;5.56;nan
14343;BME280;7255;53.596;9.960;2023-03-14T13:02:20;99019.44;;;5.40;nan
14343;BME280;7255;53.596;9.960;2023-03-14T13:04:49;99039.22;;;5.56;nan
14343;BME280;7255;53.596;9.960;2023-03-14T13:07:31;99054.63;;;5.66;nan
14343;BME280;7255;53.596;9.960;2023-03-14T13:10:16;99070.72;;;5.83;nan
14343;BME280;7255;53.596;9.960;2023-03-14T13:12:48;99070.03;;;5.75;nan
14343;BME280;7255;53.596;9.960;2023-03-14T13:15:19;99070.97;;;5.69;nan
14343;BME280;7255;53.596;9.960;2023-03-14T13:17:49;99096.44;;;5.89;nan
14343;BME280;7255;53.596;9.960;2023-03-14T13:20:22;99092.84;;;5.83;nan
14343;BME280;7255;53.596;9.960;2023-03-14T13:22:50;99108.25;;;6.16;nan
14343;BME280;7255;53.596;9.960;2023-03-14T13:25:17;99124.47;;;6.27;nan
14343;BME280;7255;53.596;9.960;2023-03-14T13:27:46;99116.47;;;6.15;nan
14343;BME280;7255;53.596;9.960;2023-03-14T13:30:15;99122.16;;;5.95;nan
14343;BME280;7255;53.596;9.960;2023-03-14T13:32:43;99143.12;;;5.91;nan
14343;BME280;7255;53.596;9.960;2023-03-14T13:35:17;99151.59;;;5.76;nan
14343;BME280;7255;53.596;9.960;2023-03-14T13:37:43;99159.97;;;5.92;nan
14343;BME280;7255;53.596;9.960;2023-03-14T13:40:20;99158.78;;;5.88;nan
14343;BME280;7255;53.596;9.960;2023-03-14T13:42:47;99178.03;;;6.13;nan
14343;BME280;7255;53.596;9.960;2023-03-14T13:45:14;99183.16;;;6.03;nan
14343;BME280;7255;53.596;9.960;2023-03-14T13:47:40;99180.63;;;6.08;nan
14343;BME280;7255;53.596;9.960;2023-03-14T13:50:14;99195.19;;;5.94;nan
14343;BME280;7255;53.596;9.960;2023-03-14T13:52:41;99196.09;;;5.88;nan
14343;BME280;7255;53.596;9.960;2023-03-14T13:55:14;99199.38;;;5.90;nan
14343;BME280;7255;53.596;9.960;2023-03-14T13:57:43;99210.13;;;5.83;nan